Pacific Titan — WCZ6844 — position and weather

sailwx.info

Track history (hours):
 
Tides and Currents Weather Stations Pressure Air Temp Water Temp Dewpoint Dewpoint Depression Visibility Wind Speed Wind Dir Waves Ship Positions

Pacific Titan

Owner: WESTERN TOWBOAT CO, SEATTLE, WA. More information available from US FCC via Universal Licensing System and Coast Guard Vessel Documentation Center.

Last reported at 2016-May-23 20:33 UTC. Time now 2016-May-27 16:11 UTC.
Position N 47°39' W 122°22'.

Type: Tow > 200 m length. MMSI: 338855000.

Date/timePositionNaut miles runAvg speedWind from/ knotsBaromVisibWave heightAir tempDewpointWater temp
2016-May-23 20:33N 47°39' W 122°22'2 1.7
2016-May-23 19:33N 47°40' W 122°24'1 1.5
2016-May-23 18:33N 47°40' W 122°26'6 5.7
2016-May-23 17:33N 47°35' W 122°22'6 5.6
2016-May-23 16:33N 47°39' W 122°28'9 8.9
2016-May-23 15:33N 47°48' W 122°28'9 8.6
2016-May-23 14:33N 47°56' W 122°32'9 8.5
2016-May-23 13:33N 48°04' W 122°39'13 9.5
2016-May-23 12:12N 48°15' W 122°49'710.1
2016-May-23 11:33N 48°21' W 122°46'9 9.4
2016-May-23 10:33N 48°30' W 122°45'10 9.6
2016-May-23 09:33N 48°40' W 122°43'9 9.3
2016-May-23 08:33N 48°47' W 122°53'1010.2
2016-May-23 07:34N 48°53' W 123°05'1010.2
2016-May-23 06:33N 48°60' W 123°17'1110.6
2016-May-23 05:33N 49°07' W 123°29'1010.5
2016-May-23 04:33N 49°13' W 123°42'1010.2
2016-May-23 03:33N 49°18' W 123°56'1010.1
2016-May-23 02:33N 49°23' W 124°09'10 9.9
2016-May-23 01:31N 49°27' W 124°23'10 9.8
2016-May-23 00:33N 49°34' W 124°33'10 9.7
2016-May-22 23:33N 49°41' W 124°43'10 9.6
2016-May-22 22:33N 49°48' W 124°54'9 9.2
2016-May-22 21:33N 49°54' W 125°04'1110.8
2016-May-22 20:33N 50°03' W 125°14'10 9.7
2016-May-22 19:33N 50°11' W 125°22'45 7.5
2016-May-22 13:30N 50°30' W 126°27'11 9.2
2016-May-22 12:22N 50°32' W 126°43'7 8.0
2016-May-22 11:30N 50°38' W 126°49'1010.0
2016-May-22 10:30N 50°43' W 127°02'9 9.9
2016-May-22 09:33N 50°49' W 127°14'1010.4
2016-May-22 08:33N 50°56' W 127°26'6 6.0
2016-May-22 07:33N 50°59' W 127°34'10 9.7
2016-May-22 06:33N 51°06' W 127°45'13 9.7
2016-May-22 05:13N 51°18' W 127°54'810.0
2016-May-22 04:22N 51°24' W 128°03'10 9.5
2016-May-22 03:19N 51°30' W 128°15'  
2016-May-15 03:33N 50°22' W 125°46'15 7.5
2016-May-15 01:33N 50°17' W 125°24'1010.1
2016-May-15 00:33N 50°07' W 125°20'1010.2
2016-May-14 23:33N 49°59' W 125°11'8 7.7
2016-May-14 22:33N 49°53' W 125°03'7 7.2
2016-May-14 21:34N 49°49' W 124°54'7 7.1
2016-May-14 20:33N 49°45' W 124°45'7 7.1
2016-May-14 19:34N 49°40' W 124°36'10 9.8
2016-May-14 18:33N 49°34' W 124°24'1010.0
2016-May-14 17:33N 49°30' W 124°10'1010.1
2016-May-14 16:33N 49°24' W 123°58'1010.3
2016-May-14 15:33N 49°18' W 123°45'10 9.9
2016-May-14 14:33N 49°11' W 123°33'9 9.1
2016-May-14 13:33N 49°05' W 123°23'9 9.2
2016-May-14 12:33N 48°59' W 123°13'8 8.5
2016-May-14 11:33N 48°54' W 123°03'10 9.6
2016-May-14 10:33N 48°48' W 122°52'9 9.4
2016-May-14 09:33N 48°41' W 122°42'9 9.2
2016-May-14 08:33N 48°31' W 122°45'1010.2
2016-May-14 07:32N 48°21' W 122°45'9 8.6
2016-May-14 06:27N 48°12' W 122°47'7 7.1
2016-May-14 05:26N 48°07' W 122°39'6 7.3
2016-May-14 04:33N 48°01' W 122°36'8 7.8
2016-May-14 03:33N 47°55' W 122°29'9 8.8
2016-May-14 02:33N 47°47' W 122°26'9 8.9
2016-May-14 01:33N 47°38' W 122°26'5 5.3
2016-May-14 00:34N 47°34' W 122°21'1 0.6
2016-May-13 23:33N 47°33' W 122°21'0 0.0
2016-May-13 22:33N 47°33' W 122°21'3 3.3
2016-May-13 21:33N 47°36' W 122°23'  
Track history (hours):
 
Tides and Currents Weather Stations Pressure Air Temp Water Temp Dewpoint Dewpoint Depression Visibility Wind Speed Wind Dir Waves Ship Positions

Pacific Titan

Owner: WESTERN TOWBOAT CO, SEATTLE, WA. More information available from US FCC via Universal Licensing System and Coast Guard Vessel Documentation Center.

Last reported at 2016-May-23 20:33 UTC. Time now 2016-May-27 16:11 UTC.
Position N 47°39' W 122°22'.

Type: Tow > 200 m length. MMSI: 338855000.

Date/timePositionNaut miles runAvg speedWind from/ knotsBaromVisibWave heightAir tempDewpointWater temp
2016-May-23 20:33N 47°39' W 122°22'2 1.7
2016-May-23 19:33N 47°40' W 122°24'1 1.5
2016-May-23 18:33N 47°40' W 122°26'6 5.7
2016-May-23 17:33N 47°35' W 122°22'6 5.6
2016-May-23 16:33N 47°39' W 122°28'9 8.9
2016-May-23 15:33N 47°48' W 122°28'9 8.6
2016-May-23 14:33N 47°56' W 122°32'9 8.5
2016-May-23 13:33N 48°04' W 122°39'13 9.5
2016-May-23 12:12N 48°15' W 122°49'710.1
2016-May-23 11:33N 48°21' W 122°46'9 9.4
2016-May-23 10:33N 48°30' W 122°45'10 9.6
2016-May-23 09:33N 48°40' W 122°43'9 9.3
2016-May-23 08:33N 48°47' W 122°53'1010.2
2016-May-23 07:34N 48°53' W 123°05'1010.2
2016-May-23 06:33N 48°60' W 123°17'1110.6
2016-May-23 05:33N 49°07' W 123°29'1010.5
2016-May-23 04:33N 49°13' W 123°42'1010.2
2016-May-23 03:33N 49°18' W 123°56'1010.1
2016-May-23 02:33N 49°23' W 124°09'10 9.9
2016-May-23 01:31N 49°27' W 124°23'10 9.8
2016-May-23 00:33N 49°34' W 124°33'10 9.7
2016-May-22 23:33N 49°41' W 124°43'10 9.6
2016-May-22 22:33N 49°48' W 124°54'9 9.2
2016-May-22 21:33N 49°54' W 125°04'1110.8
2016-May-22 20:33N 50°03' W 125°14'10 9.7
2016-May-22 19:33N 50°11' W 125°22'45 7.5
2016-May-22 13:30N 50°30' W 126°27'11 9.2
2016-May-22 12:22N 50°32' W 126°43'7 8.0
2016-May-22 11:30N 50°38' W 126°49'1010.0
2016-May-22 10:30N 50°43' W 127°02'9 9.9
2016-May-22 09:33N 50°49' W 127°14'1010.4
2016-May-22 08:33N 50°56' W 127°26'6 6.0
2016-May-22 07:33N 50°59' W 127°34'10 9.7
2016-May-22 06:33N 51°06' W 127°45'13 9.7
2016-May-22 05:13N 51°18' W 127°54'810.0
2016-May-22 04:22N 51°24' W 128°03'10 9.5
2016-May-22 03:19N 51°30' W 128°15'  
2016-May-15 03:33N 50°22' W 125°46'15 7.5
2016-May-15 01:33N 50°17' W 125°24'1010.1
2016-May-15 00:33N 50°07' W 125°20'1010.2
2016-May-14 23:33N 49°59' W 125°11'8 7.7
2016-May-14 22:33N 49°53' W 125°03'7 7.2
2016-May-14 21:34N 49°49' W 124°54'7 7.1
2016-May-14 20:33N 49°45' W 124°45'7 7.1
2016-May-14 19:34N 49°40' W 124°36'10 9.8
2016-May-14 18:33N 49°34' W 124°24'1010.0
2016-May-14 17:33N 49°30' W 124°10'1010.1
2016-May-14 16:33N 49°24' W 123°58'1010.3
2016-May-14 15:33N 49°18' W 123°45'10 9.9
2016-May-14 14:33N 49°11' W 123°33'9 9.1
2016-May-14 13:33N 49°05' W 123°23'9 9.2
2016-May-14 12:33N 48°59' W 123°13'8 8.5
2016-May-14 11:33N 48°54' W 123°03'10 9.6
2016-May-14 10:33N 48°48' W 122°52'9 9.4
2016-May-14 09:33N 48°41' W 122°42'9 9.2
2016-May-14 08:33N 48°31' W 122°45'1010.2
2016-May-14 07:32N 48°21' W 122°45'9 8.6
2016-May-14 06:27N 48°12' W 122°47'7 7.1
2016-May-14 05:26N 48°07' W 122°39'6 7.3
2016-May-14 04:33N 48°01' W 122°36'8 7.8
2016-May-14 03:33N 47°55' W 122°29'9 8.8
2016-May-14 02:33N 47°47' W 122°26'9 8.9
2016-May-14 01:33N 47°38' W 122°26'5 5.3
2016-May-14 00:34N 47°34' W 122°21'1 0.6
2016-May-13 23:33N 47°33' W 122°21'0 0.0
2016-May-13 22:33N 47°33' W 122°21'3 3.3
2016-May-13 21:33N 47°36' W 122°23'  

Dump ship's entire track history